createdAt,value
2023-05-23T00:02:24.047Z,99528.53
2023-05-23T00:07:26.407Z,99527.56
2023-05-23T00:12:28.057Z,99526.72
2023-05-23T00:17:29.848Z,99524.50
2023-05-23T00:22:31.587Z,99525.72
2023-05-23T00:27:33.212Z,99538.69
2023-05-23T00:32:35.679Z,99555.03
2023-05-23T00:37:38.172Z,99564.56
2023-05-23T00:42:39.834Z,99561.03
2023-05-23T00:47:42.482Z,99562.53
2023-05-23T00:52:46.281Z,99549.78
2023-05-23T00:57:48.517Z,99536.16
2023-05-23T01:02:52.127Z,99533.84
2023-05-23T01:07:54.650Z,99527.38
2023-05-23T01:13:02.698Z,99535.19
2023-05-23T01:18:14.502Z,99549.63
2023-05-23T01:23:28.412Z,99547.69
2023-05-23T01:28:40.972Z,99551.13
2023-05-23T01:33:44.022Z,99548.00
2023-05-23T01:38:45.703Z,99557.66
2023-05-23T01:43:47.765Z,99555.09
2023-05-23T01:48:50.604Z,99542.22
2023-05-23T01:53:52.480Z,99547.72
2023-05-23T01:58:54.410Z,99545.94
2023-05-23T02:03:57.102Z,99544.56
2023-05-23T02:08:58.782Z,99545.34
2023-05-23T02:14:00.984Z,99530.16
2023-05-23T02:19:03.580Z,99523.16
2023-05-23T02:24:05.519Z,99503.59
2023-05-23T02:29:07.321Z,99502.91
2023-05-23T02:34:09.058Z,99506.81
2023-05-23T02:39:10.835Z,99482.09
2023-05-23T02:44:12.708Z,99490.25
2023-05-23T02:49:14.593Z,99497.00
2023-05-23T02:54:16.869Z,99477.47
2023-05-23T02:59:18.771Z,99459.19
2023-05-23T03:04:21.431Z,99453.66
2023-05-23T03:09:23.108Z,99450.81
2023-05-23T03:14:25.148Z,99440.38
2023-05-23T03:19:26.925Z,99446.41
2023-05-23T03:24:28.756Z,99449.38
2023-05-23T03:29:30.542Z,99446.38
2023-05-23T03:34:33.944Z,99442.19
2023-05-23T03:39:36.875Z,99444.34
2023-05-23T03:44:40.475Z,99435.31
2023-05-23T03:49:42.453Z,99436.88
2023-05-23T03:54:44.586Z,99444.53
2023-05-23T03:59:46.411Z,99469.78
2023-05-23T04:04:48.486Z,99465.59
2023-05-23T04:09:50.317Z,99480.09
2023-05-23T04:14:52.990Z,99482.72
2023-05-23T04:19:55.219Z,99484.91
2023-05-23T04:24:57.746Z,99480.38
2023-05-23T04:30:03.979Z,99485.38
2023-05-23T04:35:07.351Z,99498.50
2023-05-23T04:40:13.567Z,99495.28
2023-05-23T04:45:34.023Z,99495.59
2023-05-23T04:50:47.816Z,99491.94
2023-05-23T04:55:50.203Z,99500.91
2023-05-23T05:00:53.701Z,99496.56
2023-05-23T05:05:56.230Z,99500.91
2023-05-23T05:10:58.232Z,99502.00
2023-05-23T05:16:00.086Z,99512.25
2023-05-23T05:21:02.315Z,99513.53
2023-05-23T05:26:05.455Z,99511.13
2023-05-23T05:31:07.406Z,99514.22
2023-05-23T05:36:11.042Z,99509.41
2023-05-23T05:41:13.361Z,99507.75
2023-05-23T05:46:20.884Z,99513.25
2023-05-23T05:51:22.729Z,99515.06
2023-05-23T05:56:24.681Z,99516.81
2023-05-23T06:01:26.865Z,99528.63
2023-05-23T06:06:28.886Z,99540.00
2023-05-23T06:11:30.988Z,99536.97
2023-05-23T06:16:33.284Z,99533.88
2023-05-23T06:21:35.171Z,99536.00
2023-05-23T06:26:39.413Z,99538.41
2023-05-23T06:31:41.221Z,99542.97
2023-05-23T06:36:43.124Z,99550.31
2023-05-23T06:41:44.897Z,99549.34
2023-05-23T06:46:47.110Z,99553.63
2023-05-23T06:51:51.043Z,99560.41
2023-05-23T06:56:53.402Z,99563.16
2023-05-23T07:01:56.069Z,99549.28
2023-05-23T07:06:59.679Z,99558.56
2023-05-23T07:12:01.436Z,99558.28
2023-05-23T07:17:04.136Z,99565.88
2023-05-23T07:22:06.188Z,99562.13
2023-05-23T07:27:10.572Z,99576.06
2023-05-23T07:32:13.848Z,99575.94
2023-05-23T07:37:15.947Z,99574.16
2023-05-23T07:42:19.983Z,99552.50
2023-05-23T07:47:21.906Z,99560.56
2023-05-23T07:52:23.990Z,99571.78
2023-05-23T07:57:26.234Z,99569.13
2023-05-23T08:02:28.738Z,99573.91
2023-05-23T08:07:31.261Z,99577.56
2023-05-23T08:12:36.705Z,99574.53
2023-05-23T08:17:46.517Z,99581.34
2023-05-23T08:22:48.411Z,99577.25
2023-05-23T08:27:51.493Z,99588.94
2023-05-23T08:33:13.230Z,99596.63
2023-05-23T08:38:21.931Z,99598.28
2023-05-23T08:43:35.059Z,99612.94
2023-05-23T08:48:38.975Z,99607.63
2023-05-23T08:53:47.140Z,99615.91
2023-05-23T08:58:49.642Z,99606.69
2023-05-23T09:03:54.498Z,99609.25
2023-05-23T09:09:12.446Z,99617.38
2023-05-23T09:14:15.521Z,99622.41
2023-05-23T09:19:19.096Z,99623.94
2023-05-23T09:24:34.993Z,99633.25
2023-05-23T09:29:40.327Z,99632.09
2023-05-23T09:34:57.143Z,99647.34
2023-05-23T09:40:01.036Z,99648.53
2023-05-23T09:45:04.838Z,99656.00
2023-05-23T09:50:08.958Z,99654.72
2023-05-23T09:55:11.052Z,99658.03
2023-05-23T10:00:16.982Z,99671.84
2023-05-23T10:05:42.031Z,99663.22
2023-05-23T10:11:13.171Z,99669.94
2023-05-23T10:16:29.166Z,99671.19
2023-05-23T10:21:46.449Z,99673.13
2023-05-23T10:26:48.972Z,99675.44
2023-05-23T10:31:53.053Z,99680.88
2023-05-23T10:37:20.797Z,99687.63
2023-05-23T10:42:41.074Z,99696.22
2023-05-23T10:47:43.232Z,99696.00
2023-05-23T10:52:45.184Z,99702.00
2023-05-23T10:57:47.181Z,99698.72
2023-05-23T11:03:00.877Z,99702.72
2023-05-23T11:08:15.370Z,99697.03
2023-05-23T11:13:17.412Z,99701.16
2023-05-23T11:18:24.665Z,99703.06
2023-05-23T11:23:40.513Z,99709.69
2023-05-23T11:28:58.778Z,99710.34
2023-05-23T11:34:01.594Z,99715.38
2023-05-23T11:39:04.172Z,99713.22
2023-05-23T11:44:13.308Z,99713.66
2023-05-23T11:49:15.172Z,99703.00
2023-05-23T11:54:17.171Z,99708.75
2023-05-23T11:59:19.028Z,99708.25
2023-05-23T12:04:21.013Z,99702.66
2023-05-23T12:09:22.905Z,99693.41
2023-05-23T12:14:29.036Z,99693.72
2023-05-23T12:19:31.195Z,99691.31
2023-05-23T12:24:33.059Z,99694.72
2023-05-23T12:29:35.891Z,99693.78
2023-05-23T12:34:42.688Z,99707.50
2023-05-23T12:39:45.370Z,99709.66
2023-05-23T12:44:51.305Z,99708.69
2023-05-23T12:49:53.155Z,99722.19
2023-05-23T12:54:54.902Z,99719.00
2023-05-23T12:59:56.615Z,99724.84
2023-05-23T13:04:58.410Z,99721.19
2023-05-23T13:10:00.703Z,99732.75
2023-05-23T13:15:02.477Z,99737.22
2023-05-23T13:20:05.339Z,99731.75
2023-05-23T13:25:08.679Z,99740.56
2023-05-23T13:30:10.774Z,99744.34
2023-05-23T13:35:12.907Z,99752.72
2023-05-23T13:40:19.845Z,99743.25
2023-05-23T13:45:23.212Z,99756.31
2023-05-23T13:50:25.210Z,99761.50
2023-05-23T13:55:27.614Z,99765.56
2023-05-23T14:00:29.332Z,99762.50
2023-05-23T14:05:31.150Z,99764.19
2023-05-23T14:10:35.730Z,99767.09
2023-05-23T14:15:38.470Z,99765.84
2023-05-23T14:20:40.464Z,99778.53
2023-05-23T14:25:42.699Z,99781.78
2023-05-23T14:30:44.619Z,99777.75
2023-05-23T14:35:46.392Z,99779.59
2023-05-23T14:40:48.882Z,99787.72
2023-05-23T14:45:50.715Z,99794.63
2023-05-23T14:50:52.497Z,99795.00
2023-05-23T14:55:54.618Z,99793.88
2023-05-23T15:00:57.395Z,99797.75
2023-05-23T15:06:00.209Z,99809.34
2023-05-23T15:11:01.934Z,99806.28
2023-05-23T15:16:03.764Z,99815.25
2023-05-23T15:21:05.786Z,99814.19
2023-05-23T15:26:07.578Z,99808.94
2023-05-23T15:31:09.274Z,99807.72
2023-05-23T15:36:13.129Z,99805.44
2023-05-23T15:41:16.886Z,99815.09
2023-05-23T15:46:18.724Z,99816.47
2023-05-23T15:51:21.067Z,99816.56
2023-05-23T15:56:22.839Z,99820.78
2023-05-23T16:01:24.629Z,99826.78
2023-05-23T16:06:28.161Z,99834.34
2023-05-23T16:11:29.922Z,99834.13
2023-05-23T16:16:31.773Z,99836.56
2023-05-23T16:21:33.559Z,99844.31
2023-05-23T16:26:35.375Z,99841.66
2023-05-23T16:31:37.188Z,99837.25
2023-05-23T16:36:38.914Z,99837.78
2023-05-23T16:41:40.705Z,99842.91
2023-05-23T16:46:42.529Z,99842.97
2023-05-23T16:51:46.485Z,99854.38
2023-05-23T16:56:49.607Z,99852.50
2023-05-23T17:01:51.527Z,99853.19
2023-05-23T17:06:53.455Z,99853.09
2023-05-23T17:11:55.248Z,99864.19
2023-05-23T17:16:57.004Z,99867.56
2023-05-23T17:21:59.049Z,99876.25
2023-05-23T17:27:00.717Z,99880.16
2023-05-23T17:32:02.602Z,99890.38
2023-05-23T17:37:04.666Z,99892.56
2023-05-23T17:42:07.055Z,99909.31
2023-05-23T17:47:08.869Z,99920.38
2023-05-23T17:52:14.764Z,99934.97
2023-05-23T17:57:16.939Z,99933.34
2023-05-23T18:02:19.287Z,99929.88
2023-05-23T18:07:21.334Z,99929.63
2023-05-23T18:12:23.062Z,99937.88
2023-05-23T18:17:25.214Z,99946.53
2023-05-23T18:22:26.952Z,99943.06
2023-05-23T18:27:28.648Z,99951.88
2023-05-23T18:32:31.419Z,99962.34
2023-05-23T18:37:33.141Z,99974.06
2023-05-23T18:42:35.081Z,99982.16
2023-05-23T18:47:36.826Z,99988.44
2023-05-23T18:52:38.936Z,100002.22
2023-05-23T18:57:40.668Z,100011.66
2023-05-23T19:02:44.651Z,100019.75
2023-05-23T19:07:46.474Z,100035.59
2023-05-23T19:12:48.213Z,100039.56
2023-05-23T19:17:50.489Z,100049.09
2023-05-23T19:22:52.874Z,100048.75
2023-05-23T19:27:54.704Z,100060.88
2023-05-23T19:32:56.568Z,100078.28
2023-05-23T19:37:58.425Z,100085.38
2023-05-23T19:43:00.181Z,100091.03
2023-05-23T19:48:02.102Z,100100.00
2023-05-23T19:53:03.830Z,100103.28
2023-05-23T19:58:05.993Z,100101.06
2023-05-23T20:03:08.469Z,100117.50
2023-05-23T20:08:10.467Z,100125.34
2023-05-23T20:13:12.330Z,100124.06
2023-05-23T20:18:14.058Z,100129.75
2023-05-23T20:23:15.845Z,100129.88
2023-05-23T20:28:17.559Z,100140.66
2023-05-23T20:33:19.895Z,100147.00
2023-05-23T20:38:21.748Z,100141.59
2023-05-23T20:43:23.727Z,100151.69
2023-05-23T20:48:25.499Z,100153.13
2023-05-23T20:53:28.016Z,100162.19
2023-05-23T20:58:29.796Z,100166.38
2023-05-23T21:03:31.710Z,100174.28
2023-05-23T21:08:34.872Z,100171.88
2023-05-23T21:13:39.807Z,100175.97
2023-05-23T21:18:41.805Z,100178.25
2023-05-23T21:23:43.558Z,100172.97
2023-05-23T21:28:45.763Z,100179.84
2023-05-23T21:33:47.912Z,100182.81
2023-05-23T21:38:49.582Z,100186.06
2023-05-23T21:43:51.747Z,100184.34
2023-05-23T21:48:53.446Z,100193.94
2023-05-23T21:53:55.109Z,100189.69
2023-05-23T21:59:06.350Z,100190.22
2023-05-23T22:04:08.163Z,100197.69
2023-05-23T22:09:11.528Z,100198.28
2023-05-23T22:14:13.224Z,100197.66
2023-05-23T22:19:18.003Z,100204.03
2023-05-23T22:24:19.798Z,100208.28
2023-05-23T22:29:21.683Z,100205.56
2023-05-23T22:34:23.390Z,100209.09
2023-05-23T22:39:25.042Z,100214.94
2023-05-23T22:44:26.825Z,100224.31
2023-05-23T22:49:30.142Z,100213.47
2023-05-23T22:54:32.019Z,100202.56
2023-05-23T22:59:33.791Z,100211.38
2023-05-23T23:04:35.488Z,100196.34
2023-05-23T23:09:37.453Z,100208.22
2023-05-23T23:14:39.100Z,100202.41
2023-05-23T23:19:41.271Z,100207.19
2023-05-23T23:24:42.984Z,100194.44
2023-05-23T23:29:44.720Z,100189.13
2023-05-23T23:34:46.390Z,100191.06
2023-05-23T23:39:48.218Z,100188.94
2023-05-23T23:44:49.970Z,100188.00
2023-05-23T23:49:51.910Z,100189.50
2023-05-23T23:54:53.616Z,100189.56
2023-05-23T23:59:55.530Z,100203.03
